createdAt,value
2023-02-24T00:02:04.142Z,100206.03
2023-02-24T00:04:39.836Z,100211.31
2023-02-24T00:07:08.341Z,100200.47
2023-02-24T00:09:35.068Z,100206.75
2023-02-24T00:12:06.276Z,100196.19
2023-02-24T00:14:36.606Z,100180.06
2023-02-24T00:17:03.991Z,100193.56
2023-02-24T00:19:32.783Z,100193.41
2023-02-24T00:22:00.975Z,100187.97
2023-02-24T00:24:28.205Z,100178.53
2023-02-24T00:26:57.707Z,100177.56
2023-02-24T00:29:25.144Z,100178.53
2023-02-24T00:32:02.369Z,100173.81
2023-02-24T00:34:35.311Z,100170.31
2023-02-24T00:37:03.219Z,100176.44
2023-02-24T00:39:30.689Z,100172.13
2023-02-24T00:42:06.598Z,100158.06
2023-02-24T00:44:40.140Z,100155.31
2023-02-24T00:47:10.531Z,100160.72
2023-02-24T00:49:48.300Z,100157.97
2023-02-24T00:52:18.925Z,100149.19
2023-02-24T00:54:47.959Z,100124.75
2023-02-24T00:57:17.700Z,100141.97
2023-02-24T00:59:47.734Z,100135.97
2023-02-24T01:02:15.470Z,100131.56
2023-02-24T01:04:44.915Z,100128.91
2023-02-24T01:07:13.880Z,100120.13
2023-02-24T01:09:41.889Z,100123.63
2023-02-24T01:12:29.311Z,100120.00
2023-02-24T01:14:56.235Z,100093.75
2023-02-24T01:17:23.601Z,100111.09
2023-02-24T01:19:50.755Z,100109.84
2023-02-24T01:22:20.229Z,100084.13
2023-02-24T01:24:47.222Z,100105.50
2023-02-24T01:27:17.606Z,100099.34
2023-02-24T01:29:45.639Z,100085.44
2023-02-24T01:32:19.732Z,100085.31
2023-02-24T01:34:48.373Z,100084.44
2023-02-24T01:37:16.505Z,100080.84
2023-02-24T01:39:47.224Z,100062.56
2023-02-24T01:42:17.134Z,100050.78
2023-02-24T01:44:43.869Z,100056.50
2023-02-24T01:47:11.494Z,100060.75
2023-02-24T01:49:42.389Z,100052.38
2023-02-24T01:52:27.058Z,100047.28
2023-02-24T01:54:55.239Z,100050.13
2023-02-24T01:57:25.736Z,100048.97
2023-02-24T01:59:54.838Z,100046.81
2023-02-24T02:02:23.479Z,100037.88
2023-02-24T02:04:57.366Z,100040.22
2023-02-24T02:07:28.506Z,100048.47
2023-02-24T02:10:00.246Z,100046.50
2023-02-24T02:12:29.054Z,100047.03
2023-02-24T02:14:59.552Z,100024.28
2023-02-24T02:17:45.064Z,100041.16
2023-02-24T02:20:23.057Z,100043.66
2023-02-24T02:23:10.062Z,100036.69
2023-02-24T02:25:58.278Z,100034.66
2023-02-24T02:28:54.145Z,100040.63
2023-02-24T02:31:46.610Z,100035.50
2023-02-24T02:34:27.730Z,100023.50
2023-02-24T02:37:09.499Z,100034.09
2023-02-24T02:39:39.274Z,100028.31
2023-02-24T02:42:28.740Z,100022.44
2023-02-24T02:45:05.427Z,100025.13
2023-02-24T02:47:50.565Z,100027.91
2023-02-24T02:50:28.117Z,100032.06
2023-02-24T02:53:00.552Z,100028.44
2023-02-24T02:55:42.219Z,100017.63
2023-02-24T02:58:17.109Z,99997.31
2023-02-24T03:00:59.020Z,100009.56
2023-02-24T03:03:28.043Z,100020.69
2023-02-24T03:06:04.100Z,100004.22
2023-02-24T03:08:34.471Z,100023.34
2023-02-24T03:11:05.667Z,99999.88
2023-02-24T03:13:37.932Z,100017.88
2023-02-24T03:16:06.656Z,100016.38
2023-02-24T03:18:38.450Z,100019.66
2023-02-24T03:21:13.219Z,100020.09
2023-02-24T03:23:52.457Z,100019.91
2023-02-24T03:26:31.078Z,100019.38
2023-02-24T03:29:24.443Z,100021.34
2023-02-24T03:32:02.080Z,100029.97
2023-02-24T03:34:31.864Z,100009.03
2023-02-24T03:36:58.956Z,100014.16
2023-02-24T03:39:26.355Z,100009.19
2023-02-24T03:42:19.458Z,100003.19
2023-02-24T03:44:47.084Z,100001.69
2023-02-24T03:47:20.323Z,100004.47
2023-02-24T03:49:48.527Z,99998.53
2023-02-24T03:52:33.918Z,100001.06
2023-02-24T03:55:06.305Z,100002.06
2023-02-24T03:57:54.947Z,100002.53
2023-02-24T04:00:35.289Z,100004.84
2023-02-24T04:03:20.009Z,100005.34
2023-02-24T04:06:20.868Z,100010.75
2023-02-24T04:09:00.954Z,100003.44
2023-02-24T04:11:58.244Z,100009.38
2023-02-24T04:14:33.262Z,100012.28
2023-02-24T04:17:08.034Z,99985.72
2023-02-24T04:19:40.582Z,99997.09
2023-02-24T04:22:10.736Z,99991.13
2023-02-24T04:24:41.659Z,99984.34
2023-02-24T04:27:11.922Z,99991.44
2023-02-24T04:29:52.047Z,99990.94
2023-02-24T04:32:24.138Z,99999.31
2023-02-24T04:34:51.013Z,99987.69
2023-02-24T04:37:23.132Z,99977.09
2023-02-24T04:39:51.002Z,99989.34
2023-02-24T04:42:25.995Z,99986.16
2023-02-24T04:44:53.879Z,99981.09
2023-02-24T04:47:21.054Z,99976.13
2023-02-24T04:49:48.090Z,99951.94
2023-02-24T04:52:15.993Z,99955.88
2023-02-24T04:54:44.555Z,99974.69
2023-02-24T04:57:12.779Z,99968.03
2023-02-24T04:59:40.773Z,99963.56
2023-02-24T05:02:07.816Z,99943.19
2023-02-24T05:04:38.830Z,99954.00
2023-02-24T05:07:05.813Z,99949.97
2023-02-24T05:09:32.615Z,99956.91
2023-02-24T05:12:00.372Z,99944.91
2023-02-24T05:14:27.749Z,99944.47
2023-02-24T05:17:00.044Z,99952.91
2023-02-24T05:19:45.342Z,99924.22
2023-02-24T05:22:14.558Z,99935.44
2023-02-24T05:24:41.328Z,99945.47
2023-02-24T05:27:08.622Z,99958.09
2023-02-24T05:29:36.105Z,99962.22
2023-02-24T05:32:04.401Z,99941.94
2023-02-24T05:34:33.268Z,99949.78
2023-02-24T05:37:01.878Z,99950.28
2023-02-24T05:39:28.786Z,99916.22
2023-02-24T05:41:57.242Z,99923.75
2023-02-24T05:44:26.267Z,99908.19
2023-02-24T05:46:58.821Z,99912.22
2023-02-24T05:49:33.726Z,99935.94
2023-02-24T05:52:07.780Z,99936.41
2023-02-24T05:54:41.121Z,99937.59
2023-02-24T05:57:13.505Z,99917.34
2023-02-24T05:59:41.667Z,99938.16
2023-02-24T06:02:11.359Z,99944.19
2023-02-24T06:04:40.300Z,99910.78
2023-02-24T06:07:19.313Z,99938.88
2023-02-24T06:09:50.135Z,99948.66
2023-02-24T06:12:18.273Z,99911.47
2023-02-24T06:14:45.226Z,99939.59
2023-02-24T06:17:12.198Z,99925.59
2023-02-24T06:19:41.209Z,99949.47
2023-02-24T06:22:11.763Z,99931.72
2023-02-24T06:24:39.424Z,99945.22
2023-02-24T06:27:10.486Z,99946.00
2023-02-24T06:29:38.175Z,99948.19
2023-02-24T06:32:11.522Z,99953.63
2023-02-24T06:34:39.804Z,99933.09
2023-02-24T06:37:10.563Z,99937.91
2023-02-24T06:39:37.327Z,99933.66
2023-02-24T06:42:05.186Z,99959.72
2023-02-24T06:44:33.889Z,99946.88
2023-02-24T06:47:01.133Z,99925.25
2023-02-24T06:49:28.576Z,99950.34
2023-02-24T06:51:56.196Z,99949.19
2023-02-24T06:54:25.758Z,99927.63
2023-02-24T06:56:52.523Z,99937.97
2023-02-24T06:59:21.968Z,99941.91
2023-02-24T07:01:49.451Z,99938.63
2023-02-24T07:04:17.364Z,99944.22
2023-02-24T07:06:47.849Z,99931.38
2023-02-24T07:09:16.159Z,99921.06
2023-02-24T07:11:46.909Z,99933.91
2023-02-24T07:14:14.194Z,99906.38
2023-02-24T07:16:45.339Z,99933.22
2023-02-24T07:19:14.488Z,99918.38
2023-02-24T07:21:50.060Z,99925.34
2023-02-24T07:24:24.977Z,99926.38
2023-02-24T07:27:00.856Z,99920.09
2023-02-24T07:29:30.919Z,99926.22
2023-02-24T07:32:03.539Z,99915.47
2023-02-24T07:34:32.029Z,99916.16
2023-02-24T07:36:58.776Z,99898.94
2023-02-24T07:39:26.048Z,99912.53
2023-02-24T07:41:57.251Z,99918.16
2023-02-24T07:44:24.563Z,99911.56
2023-02-24T07:46:52.002Z,99928.47
2023-02-24T07:49:21.342Z,99922.91
2023-02-24T07:51:53.003Z,99922.91
2023-02-24T07:54:21.791Z,99900.53
2023-02-24T07:56:56.712Z,99915.13
2023-02-24T07:59:32.687Z,99919.28
2023-02-24T08:02:04.653Z,99916.34
2023-02-24T08:04:33.203Z,99900.78
2023-02-24T08:07:03.476Z,99912.25
2023-02-24T08:09:45.470Z,99907.66
2023-02-24T08:12:18.111Z,99903.13
2023-02-24T08:14:51.018Z,99902.72
2023-02-24T08:17:20.061Z,99880.69
2023-02-24T08:20:12.095Z,99893.78
2023-02-24T08:22:47.185Z,99893.00
2023-02-24T08:25:19.179Z,99873.13
2023-02-24T08:28:06.884Z,99886.06
2023-02-24T08:30:40.177Z,99884.91
2023-02-24T08:33:11.491Z,99873.78
2023-02-24T08:35:45.116Z,99893.34
2023-02-24T08:38:16.372Z,99890.38
2023-02-24T08:40:50.852Z,99872.84
2023-02-24T08:43:30.093Z,99879.78
2023-02-24T08:46:03.788Z,99879.59
2023-02-24T08:48:39.725Z,99876.44
2023-02-24T08:51:22.902Z,99865.00
2023-02-24T08:53:55.656Z,99857.81
2023-02-24T08:56:26.095Z,99853.84
2023-02-24T08:59:05.672Z,99860.13
2023-02-24T09:01:38.636Z,99839.25
2023-02-24T09:04:09.015Z,99847.31
2023-02-24T09:06:44.594Z,99845.94
2023-02-24T09:09:18.177Z,99843.38
2023-02-24T09:11:47.643Z,99832.34
2023-02-24T09:14:26.514Z,99822.56
2023-02-24T09:17:02.167Z,99828.41
2023-02-24T09:19:41.014Z,99828.38
2023-02-24T09:22:29.738Z,99804.44
2023-02-24T09:25:18.236Z,99805.31
2023-02-24T09:27:55.344Z,99805.63
2023-02-24T09:30:36.931Z,99804.88
2023-02-24T09:33:18.136Z,99801.22
2023-02-24T09:35:48.702Z,99797.38
2023-02-24T09:38:17.732Z,99794.69
2023-02-24T09:40:49.302Z,99793.25
2023-02-24T09:43:18.204Z,99793.31
2023-02-24T09:46:14.548Z,99790.13
2023-02-24T09:48:43.981Z,99797.00
2023-02-24T09:51:23.007Z,99776.44
2023-02-24T09:53:53.895Z,99782.00
2023-02-24T09:56:22.752Z,99789.53
2023-02-24T09:59:12.712Z,99786.16
2023-02-24T10:02:12.271Z,99783.75
2023-02-24T10:05:07.568Z,99780.25
2023-02-24T10:07:42.046Z,99757.41
2023-02-24T10:10:19.934Z,99777.38
2023-02-24T10:12:58.406Z,99779.25
2023-02-24T10:15:56.977Z,99771.81
2023-02-24T10:18:42.372Z,99773.00
2023-02-24T10:21:48.482Z,99778.16
2023-02-24T10:24:47.326Z,99765.84
2023-02-24T10:27:17.642Z,99760.00
2023-02-24T10:29:47.560Z,99760.50
2023-02-24T10:32:18.833Z,99746.94
2023-02-24T10:34:47.379Z,99739.91
2023-02-24T10:37:27.568Z,99724.94
2023-02-24T10:40:09.996Z,99725.59
2023-02-24T10:42:45.854Z,99711.94
2023-02-24T10:45:27.415Z,99708.94
2023-02-24T10:47:59.469Z,99690.47
2023-02-24T10:50:32.556Z,99690.16
2023-02-24T10:53:11.425Z,99668.31
2023-02-24T10:55:48.080Z,99683.81
2023-02-24T10:58:28.232Z,99677.72
2023-02-24T11:01:40.447Z,99660.28
2023-02-24T11:04:33.183Z,99667.81
2023-02-24T11:07:11.985Z,99654.78
2023-02-24T11:09:53.047Z,99648.09
2023-02-24T11:12:42.209Z,99648.59
2023-02-24T11:15:41.040Z,99621.91
2023-02-24T11:18:19.490Z,99606.91
2023-02-24T11:21:02.579Z,99614.31
2023-02-24T11:23:31.147Z,99620.28
2023-02-24T11:26:22.390Z,99591.09
2023-02-24T11:29:24.356Z,99597.94
2023-02-24T11:32:36.571Z,99572.53
2023-02-24T11:35:09.547Z,99580.47
2023-02-24T11:37:53.205Z,99567.47
2023-02-24T11:40:30.915Z,99551.84
2023-02-24T11:43:07.406Z,99554.41
2023-02-24T11:45:46.462Z,99558.03
2023-02-24T11:48:17.422Z,99532.16
2023-02-24T11:50:59.866Z,99553.34
2023-02-24T11:53:36.942Z,99547.06
2023-02-24T11:56:03.771Z,99536.53
2023-02-24T11:58:39.672Z,99532.56
2023-02-24T12:01:17.040Z,99522.22
2023-02-24T12:04:03.040Z,99527.03
2023-02-24T12:06:51.675Z,99521.97
2023-02-24T12:09:26.665Z,99517.41
2023-02-24T12:12:05.173Z,99514.84
2023-02-24T12:14:45.805Z,99505.03
2023-02-24T12:17:36.790Z,99507.09
2023-02-24T12:20:23.853Z,99508.75
2023-02-24T12:22:56.676Z,99482.09
2023-02-24T12:25:37.917Z,99473.38
2023-02-24T12:28:13.521Z,99507.06
2023-02-24T12:30:58.498Z,99501.50
2023-02-24T12:33:34.243Z,99504.03
2023-02-24T12:36:12.482Z,99479.00
2023-02-24T12:38:58.668Z,99504.72
2023-02-24T12:41:42.460Z,99489.66
2023-02-24T12:44:19.981Z,99493.63
2023-02-24T12:46:56.053Z,99497.84
2023-02-24T12:49:44.531Z,99467.94
2023-02-24T12:52:42.039Z,99487.47
2023-02-24T12:55:23.444Z,99478.41
2023-02-24T12:58:18.031Z,99461.59
2023-02-24T13:01:00.056Z,99470.31
2023-02-24T13:03:39.526Z,99461.34
2023-02-24T13:06:09.847Z,99446.66
2023-02-24T13:08:57.162Z,99463.28
2023-02-24T13:11:57.708Z,99454.88
2023-02-24T13:14:36.838Z,99445.78
2023-02-24T13:17:13.075Z,99447.28
2023-02-24T13:19:43.261Z,99440.09
2023-02-24T13:22:12.738Z,99442.44
2023-02-24T13:24:43.117Z,99437.06
2023-02-24T13:27:12.806Z,99432.09
2023-02-24T13:29:44.856Z,99418.94
2023-02-24T13:32:24.038Z,99433.53
2023-02-24T13:34:54.120Z,99426.53
2023-02-24T13:37:36.318Z,99422.06
2023-02-24T13:40:18.506Z,99423.75
2023-02-24T13:42:56.754Z,99400.13
2023-02-24T13:45:26.630Z,99392.53
2023-02-24T13:47:53.484Z,99394.38
2023-02-24T13:50:31.269Z,99380.50
2023-02-24T13:53:23.670Z,99402.00
2023-02-24T13:55:54.770Z,99389.63
2023-02-24T13:58:43.019Z,99388.78
2023-02-24T14:01:11.259Z,99367.03
2023-02-24T14:03:41.361Z,99378.91
2023-02-24T14:06:26.528Z,99372.50
2023-02-24T14:08:57.664Z,99375.38
2023-02-24T14:11:28.383Z,99372.09
2023-02-24T14:13:56.867Z,99349.09
2023-02-24T14:16:27.946Z,99366.00
2023-02-24T14:18:57.785Z,99361.22
2023-02-24T14:21:27.581Z,99360.22
2023-02-24T14:24:01.661Z,99354.06
2023-02-24T14:26:41.627Z,99348.50
2023-02-24T14:29:08.888Z,99349.31
2023-02-24T14:31:36.268Z,99322.03
2023-02-24T14:34:09.161Z,99326.31
2023-02-24T14:36:39.506Z,99348.19
2023-02-24T14:39:29.920Z,99332.84
2023-02-24T14:42:09.686Z,99334.25
2023-02-24T14:44:48.935Z,99319.34
2023-02-24T14:47:18.408Z,99327.81
2023-02-24T14:50:04.753Z,99322.53
2023-02-24T14:52:43.584Z,99335.38
2023-02-24T14:55:15.731Z,99301.00
2023-02-24T14:57:50.006Z,99326.66
2023-02-24T15:00:27.322Z,99320.53
2023-02-24T15:03:13.737Z,99320.53
2023-02-24T15:05:44.957Z,99319.09
2023-02-24T15:08:36.582Z,99321.59
2023-02-24T15:11:19.891Z,99320.38
2023-02-24T15:13:54.869Z,99297.66
2023-02-24T15:16:26.975Z,99300.94
2023-02-24T15:18:58.411Z,99288.22
2023-02-24T15:21:30.329Z,99291.72
2023-02-24T15:24:02.508Z,99310.56
2023-02-24T15:26:33.685Z,99301.78
2023-02-24T15:29:15.361Z,99317.59
2023-02-24T15:31:47.805Z,99298.50
2023-02-24T15:34:20.604Z,99308.16
2023-02-24T15:36:50.049Z,99312.47
2023-02-24T15:39:24.123Z,99298.13
2023-02-24T15:41:52.430Z,99298.75
2023-02-24T15:44:30.720Z,99287.03
2023-02-24T15:46:59.298Z,99298.13
2023-02-24T15:49:26.874Z,99295.06
2023-02-24T15:51:55.472Z,99301.22
2023-02-24T15:54:30.757Z,99277.84
2023-02-24T15:56:59.542Z,99292.81
2023-02-24T15:59:26.468Z,99289.31
2023-02-24T16:01:53.553Z,99284.19
2023-02-24T16:04:21.877Z,99284.41
2023-02-24T16:06:55.746Z,99277.03
2023-02-24T16:09:38.212Z,99281.13
2023-02-24T16:12:10.394Z,99279.47
2023-02-24T16:14:38.321Z,99280.91
2023-02-24T16:17:09.688Z,99279.47
2023-02-24T16:19:37.272Z,99284.41
2023-02-24T16:22:04.268Z,99274.75
2023-02-24T16:24:31.024Z,99287.03
2023-02-24T16:26:57.742Z,99281.09
2023-02-24T16:29:24.612Z,99276.16
2023-02-24T16:31:51.506Z,99253.19
2023-02-24T16:34:18.370Z,99275.97
2023-02-24T16:36:45.519Z,99281.50
2023-02-24T16:39:14.250Z,99267.94
2023-02-24T16:41:41.200Z,99269.59
2023-02-24T16:44:08.055Z,99276.13
2023-02-24T16:46:38.090Z,99277.34
2023-02-24T16:49:08.251Z,99272.84
2023-02-24T16:51:35.594Z,99274.47
2023-02-24T16:54:02.435Z,99264.00
2023-02-24T16:56:29.190Z,99267.69
2023-02-24T16:58:55.931Z,99270.56
2023-02-24T17:01:22.731Z,99263.56
2023-02-24T17:03:52.784Z,99266.00
2023-02-24T17:06:21.927Z,99259.44
2023-02-24T17:08:49.747Z,99260.59
2023-02-24T17:11:21.320Z,99256.28
2023-02-24T17:13:48.099Z,99257.91
2023-02-24T17:16:14.914Z,99257.31
2023-02-24T17:18:41.874Z,99246.66
2023-02-24T17:21:12.624Z,99240.06
2023-02-24T17:23:39.424Z,99239.41
2023-02-24T17:26:06.287Z,99256.19
2023-02-24T17:28:33.514Z,99245.94
2023-02-24T17:31:00.395Z,99232.16
2023-02-24T17:33:27.190Z,99246.09
2023-02-24T17:35:53.928Z,99242.19
2023-02-24T17:38:23.270Z,99246.50
2023-02-24T17:40:50.174Z,99248.69
2023-02-24T17:43:16.931Z,99255.41
2023-02-24T17:45:45.710Z,99243.72
2023-02-24T17:48:14.381Z,99231.63
2023-02-24T17:50:42.438Z,99244.16
2023-02-24T17:53:09.285Z,99242.47
2023-02-24T17:55:36.177Z,99242.91
2023-02-24T17:58:03.005Z,99250.19
2023-02-24T18:00:29.715Z,99246.88
2023-02-24T18:02:56.557Z,99232.84
2023-02-24T18:05:23.428Z,99248.63
2023-02-24T18:07:50.302Z,99254.97
2023-02-24T18:10:17.949Z,99254.53
2023-02-24T18:12:44.696Z,99234.25
2023-02-24T18:15:11.614Z,99227.00
2023-02-24T18:17:38.792Z,99224.16
2023-02-24T18:20:08.083Z,99247.28
2023-02-24T18:22:35.823Z,99232.31
2023-02-24T18:25:02.757Z,99248.88
2023-02-24T18:27:29.517Z,99244.16
2023-02-24T18:29:56.305Z,99221.16
2023-02-24T18:32:23.168Z,99234.16
2023-02-24T18:34:50.180Z,99237.78
2023-02-24T18:37:17.154Z,99187.00
2023-02-24T18:39:43.879Z,99222.47
2023-02-24T18:42:11.690Z,99225.88
2023-02-24T18:44:38.412Z,99212.78
2023-02-24T18:47:09.551Z,99191.19
2023-02-24T18:49:37.681Z,99198.88
2023-02-24T18:52:05.483Z,99180.97
2023-02-24T18:54:33.527Z,99172.78
2023-02-24T18:57:00.321Z,99179.56
2023-02-24T18:59:27.256Z,99161.50
2023-02-24T19:01:56.790Z,99161.50
2023-02-24T19:04:24.226Z,99167.50
2023-02-24T19:06:50.982Z,99169.34
2023-02-24T19:09:21.774Z,99143.47
2023-02-24T19:11:50.418Z,99159.50
2023-02-24T19:14:17.826Z,99144.28
2023-02-24T19:16:45.231Z,99154.16
2023-02-24T19:19:16.437Z,99149.91
2023-02-24T19:21:48.319Z,99131.47
2023-02-24T19:24:16.507Z,99134.50
2023-02-24T19:26:44.423Z,99140.03
2023-02-24T19:29:12.081Z,99134.72
2023-02-24T19:31:39.321Z,99138.59
2023-02-24T19:34:13.173Z,99123.94
2023-02-24T19:36:41.213Z,99141.22
2023-02-24T19:39:11.002Z,99150.38
2023-02-24T19:41:38.425Z,99144.88
2023-02-24T19:44:05.559Z,99147.25
2023-02-24T19:46:34.132Z,99127.72
2023-02-24T19:49:01.142Z,99132.59
2023-02-24T19:51:28.094Z,99157.63
2023-02-24T19:53:57.055Z,99141.38
2023-02-24T19:56:25.988Z,99140.81
2023-02-24T19:58:57.526Z,99148.41
2023-02-24T20:01:25.899Z,99151.06
2023-02-24T20:03:56.001Z,99143.91
2023-02-24T20:06:25.758Z,99137.16
2023-02-24T20:08:53.858Z,99135.31
2023-02-24T20:11:21.782Z,99137.22
2023-02-24T20:13:52.608Z,99137.78
2023-02-24T20:16:21.255Z,99127.34
2023-02-24T20:18:48.256Z,99130.63
2023-02-24T20:21:15.086Z,99128.41
2023-02-24T20:23:42.296Z,99121.66
2023-02-24T20:26:16.646Z,99112.25
2023-02-24T20:28:44.574Z,99109.19
2023-02-24T20:31:15.379Z,99106.94
2023-02-24T20:33:43.801Z,99107.31
2023-02-24T20:36:13.176Z,99104.69
2023-02-24T20:38:40.043Z,99094.50
2023-02-24T20:41:07.123Z,99100.44
2023-02-24T20:43:34.558Z,99085.09
2023-02-24T20:46:14.548Z,99081.47
2023-02-24T20:48:41.545Z,99084.84
2023-02-24T20:51:09.396Z,99088.09
2023-02-24T20:53:56.196Z,99064.28
2023-02-24T20:56:25.508Z,99092.75
2023-02-24T20:58:58.364Z,99069.28
2023-02-24T21:01:25.829Z,99083.78
2023-02-24T21:03:52.567Z,99060.31
2023-02-24T21:06:19.309Z,99074.31
2023-02-24T21:08:46.493Z,99066.88
2023-02-24T21:11:14.576Z,99055.63
2023-02-24T21:13:42.998Z,99059.13
2023-02-24T21:16:12.072Z,99055.63
2023-02-24T21:18:40.645Z,99037.75
2023-02-24T21:21:08.607Z,99054.81
2023-02-24T21:23:37.601Z,99041.09
2023-02-24T21:26:05.599Z,99022.84
2023-02-24T21:28:32.575Z,99036.03
2023-02-24T21:30:59.481Z,99026.59
2023-02-24T21:33:26.260Z,99034.38
2023-02-24T21:36:03.188Z,99007.50
2023-02-24T21:38:34.055Z,99010.34
2023-02-24T21:41:07.392Z,99016.38
2023-02-24T21:43:34.696Z,99025.94
2023-02-24T21:46:02.996Z,98988.28
2023-02-24T21:48:29.890Z,99013.28
2023-02-24T21:51:03.678Z,99000.16
2023-02-24T21:53:33.796Z,99013.88
2023-02-24T21:56:04.411Z,99008.75
2023-02-24T21:58:32.882Z,99018.91
2023-02-24T22:00:59.779Z,99015.25
2023-02-24T22:03:26.607Z,98999.44
2023-02-24T22:05:54.415Z,99000.00
2023-02-24T22:08:21.119Z,99014.13
2023-02-24T22:10:58.713Z,99007.63
2023-02-24T22:13:25.904Z,99007.41
2023-02-24T22:15:52.816Z,99006.75
2023-02-24T22:18:21.171Z,98997.41
2023-02-24T22:20:48.072Z,98995.13
2023-02-24T22:23:14.862Z,98992.69
2023-02-24T22:25:41.641Z,98969.69
2023-02-24T22:28:08.498Z,98979.59
2023-02-24T22:30:35.324Z,98972.19
2023-02-24T22:33:02.092Z,98971.25
2023-02-24T22:35:28.981Z,98971.06
2023-02-24T22:37:55.809Z,98955.94
2023-02-24T22:40:23.707Z,98969.72
2023-02-24T22:42:50.434Z,98971.38
2023-02-24T22:45:17.176Z,98961.25
2023-02-24T22:47:43.954Z,98965.09
2023-02-24T22:50:11.309Z,98955.88
2023-02-24T22:52:38.441Z,98946.72
2023-02-24T22:55:05.455Z,98966.13
2023-02-24T22:57:34.059Z,98949.88
2023-02-24T23:00:00.950Z,98957.91
2023-02-24T23:02:27.801Z,98955.41
2023-02-24T23:04:54.484Z,98956.22
2023-02-24T23:07:21.256Z,98952.75
2023-02-24T23:09:53.116Z,98941.50
2023-02-24T23:12:21.058Z,98924.47
2023-02-24T23:14:47.787Z,98921.22
2023-02-24T23:17:14.623Z,98938.38
2023-02-24T23:19:41.348Z,98928.19
2023-02-24T23:22:08.425Z,98934.91
2023-02-24T23:24:36.147Z,98910.69
2023-02-24T23:27:03.830Z,98916.59
2023-02-24T23:29:30.844Z,98931.63
2023-02-24T23:31:58.724Z,98919.50
2023-02-24T23:34:26.135Z,98925.25
2023-02-24T23:36:52.917Z,98913.19
2023-02-24T23:39:23.137Z,98925.25
2023-02-24T23:41:52.348Z,98918.69
2023-02-24T23:44:19.085Z,98924.03
2023-02-24T23:46:46.679Z,98922.63
2023-02-24T23:49:13.406Z,98892.53
2023-02-24T23:51:48.121Z,98913.25
2023-02-24T23:54:17.830Z,98910.16
2023-02-24T23:56:44.707Z,98904.19
2023-02-24T23:59:11.954Z,98907.88
